sensor_id;sensor_type;location;lat;lon;timestamp;P1;durP1;ratioP1;P2;durP2;ratioP2
647;SDS011;75315;49.006;9.060;2024-03-22T00:02:08;39.55;;;4.30;;
647;SDS011;75315;49.006;9.060;2024-03-22T00:04:37;37.65;;;3.60;;
647;SDS011;75315;49.006;9.060;2024-03-22T00:07:03;39.15;;;4.30;;
647;SDS011;75315;49.006;9.060;2024-03-22T00:09:30;39.00;;;4.00;;
647;SDS011;75315;49.006;9.060;2024-03-22T00:11:57;40.50;;;5.70;;
647;SDS011;75315;49.006;9.060;2024-03-22T00:14:24;39.45;;;4.60;;
647;SDS011;75315;49.006;9.060;2024-03-22T00:16:50;45.47;;;4.80;;
647;SDS011;75315;49.006;9.060;2024-03-22T00:19:17;39.95;;;4.65;;
647;SDS011;75315;49.006;9.060;2024-03-22T00:21:43;38.70;;;4.50;;
647;SDS011;75315;49.006;9.060;2024-03-22T00:24:10;38.42;;;4.28;;
647;SDS011;75315;49.006;9.060;2024-03-22T00:26:36;37.35;;;3.58;;
647;SDS011;75315;49.006;9.060;2024-03-22T00:29:03;39.65;;;3.72;;
647;SDS011;75315;49.006;9.060;2024-03-22T00:31:29;37.72;;;3.30;;
647;SDS011;75315;49.006;9.060;2024-03-22T00:33:55;37.72;;;3.67;;
647;SDS011;75315;49.006;9.060;2024-03-22T00:36:22;38.90;;;4.10;;
647;SDS011;75315;49.006;9.060;2024-03-22T00:38:49;39.50;;;3.50;;
647;SDS011;75315;49.006;9.060;2024-03-22T00:41:15;38.67;;;3.35;;
647;SDS011;75315;49.006;9.060;2024-03-22T00:43:42;37.75;;;3.40;;
647;SDS011;75315;49.006;9.060;2024-03-22T00:46:08;38.10;;;3.65;;
647;SDS011;75315;49.006;9.060;2024-03-22T00:48:36;37.95;;;4.00;;
647;SDS011;75315;49.006;9.060;2024-03-22T00:51:02;37.92;;;4.28;;
647;SDS011;75315;49.006;9.060;2024-03-22T00:53:29;39.63;;;4.93;;
647;SDS011;75315;49.006;9.060;2024-03-22T00:55:56;39.13;;;4.32;;
647;SDS011;75315;49.006;9.060;2024-03-22T00:58:25;39.35;;;4.57;;
647;SDS011;75315;49.006;9.060;2024-03-22T01:00:53;41.80;;;5.50;;
647;SDS011;75315;49.006;9.060;2024-03-22T01:03:20;40.47;;;4.10;;
647;SDS011;75315;49.006;9.060;2024-03-22T01:05:47;39.95;;;4.20;;
647;SDS011;75315;49.006;9.060;2024-03-22T01:08:14;39.17;;;4.55;;
647;SDS011;75315;49.006;9.060;2024-03-22T01:10:40;38.80;;;3.80;;
647;SDS011;75315;49.006;9.060;2024-03-22T01:13:07;41.15;;;4.45;;
647;SDS011;75315;49.006;9.060;2024-03-22T01:15:34;37.75;;;4.18;;
647;SDS011;75315;49.006;9.060;2024-03-22T01:18:01;38.80;;;4.45;;
647;SDS011;75315;49.006;9.060;2024-03-22T01:20:28;39.13;;;4.60;;
647;SDS011;75315;49.006;9.060;2024-03-22T01:22:54;39.45;;;4.30;;
647;SDS011;75315;49.006;9.060;2024-03-22T01:25:21;41.38;;;4.75;;
647;SDS011;75315;49.006;9.060;2024-03-22T01:27:47;39.25;;;4.88;;
647;SDS011;75315;49.006;9.060;2024-03-22T01:30:14;38.30;;;4.97;;
647;SDS011;75315;49.006;9.060;2024-03-22T01:32:40;39.20;;;5.50;;
647;SDS011;75315;49.006;9.060;2024-03-22T01:35:07;45.55;;;7.45;;
647;SDS011;75315;49.006;9.060;2024-03-22T01:37:34;39.42;;;4.97;;
647;SDS011;75315;49.006;9.060;2024-03-22T01:40:01;39.47;;;5.40;;
647;SDS011;75315;49.006;9.060;2024-03-22T01:42:28;40.00;;;7.38;;
647;SDS011;75315;49.006;9.060;2024-03-22T01:44:55;39.20;;;5.10;;
647;SDS011;75315;49.006;9.060;2024-03-22T01:47:21;44.78;;;5.35;;
647;SDS011;75315;49.006;9.060;2024-03-22T01:49:48;39.30;;;5.63;;
647;SDS011;75315;49.006;9.060;2024-03-22T01:52:16;45.97;;;6.20;;
647;SDS011;75315;49.006;9.060;2024-03-22T01:54:43;42.47;;;6.65;;
647;SDS011;75315;49.006;9.060;2024-03-22T01:57:09;38.58;;;5.22;;
647;SDS011;75315;49.006;9.060;2024-03-22T01:59:36;39.95;;;5.90;;
647;SDS011;75315;49.006;9.060;2024-03-22T02:02:03;42.97;;;5.45;;
647;SDS011;75315;49.006;9.060;2024-03-22T02:04:29;39.20;;;5.35;;
647;SDS011;75315;49.006;9.060;2024-03-22T02:06:56;40.00;;;5.38;;
647;SDS011;75315;49.006;9.060;2024-03-22T02:09:22;40.10;;;5.35;;
647;SDS011;75315;49.006;9.060;2024-03-22T02:11:49;38.78;;;4.80;;
647;SDS011;75315;49.006;9.060;2024-03-22T02:14:16;38.85;;;5.00;;
647;SDS011;75315;49.006;9.060;2024-03-22T02:16:42;39.42;;;5.95;;
647;SDS011;75315;49.006;9.060;2024-03-22T02:19:08;38.50;;;5.22;;
647;SDS011;75315;49.006;9.060;2024-03-22T02:21:35;39.88;;;5.03;;
647;SDS011;75315;49.006;9.060;2024-03-22T02:24:01;39.97;;;5.07;;
647;SDS011;75315;49.006;9.060;2024-03-22T02:26:28;43.03;;;5.40;;
647;SDS011;75315;49.006;9.060;2024-03-22T02:28:55;43.08;;;7.47;;
647;SDS011;75315;49.006;9.060;2024-03-22T02:31:21;43.25;;;8.00;;
647;SDS011;75315;49.006;9.060;2024-03-22T02:33:48;43.55;;;9.13;;
647;SDS011;75315;49.006;9.060;2024-03-22T02:36:14;46.47;;;8.68;;
647;SDS011;75315;49.006;9.060;2024-03-22T02:38:40;43.70;;;7.60;;
647;SDS011;75315;49.006;9.060;2024-03-22T02:41:07;42.67;;;7.10;;
647;SDS011;75315;49.006;9.060;2024-03-22T02:43:33;40.45;;;5.82;;
647;SDS011;75315;49.006;9.060;2024-03-22T02:46:00;39.88;;;5.25;;
647;SDS011;75315;49.006;9.060;2024-03-22T02:48:26;38.83;;;5.28;;
647;SDS011;75315;49.006;9.060;2024-03-22T02:50:57;38.50;;;5.00;;
647;SDS011;75315;49.006;9.060;2024-03-22T02:53:23;36.70;;;3.80;;
647;SDS011;75315;49.006;9.060;2024-03-22T02:55:50;37.70;;;4.10;;
647;SDS011;75315;49.006;9.060;2024-03-22T02:58:17;41.40;;;5.05;;
647;SDS011;75315;49.006;9.060;2024-03-22T03:00:46;39.90;;;4.97;;
647;SDS011;75315;49.006;9.060;2024-03-22T03:03:13;37.22;;;4.32;;
647;SDS011;75315;49.006;9.060;2024-03-22T03:05:39;38.58;;;4.43;;
647;SDS011;75315;49.006;9.060;2024-03-22T03:08:07;39.80;;;4.70;;
647;SDS011;75315;49.006;9.060;2024-03-22T03:10:33;39.45;;;5.35;;
647;SDS011;75315;49.006;9.060;2024-03-22T03:12:59;37.80;;;4.50;;
647;SDS011;75315;49.006;9.060;2024-03-22T03:15:26;39.90;;;4.47;;
647;SDS011;75315;49.006;9.060;2024-03-22T03:17:52;39.25;;;4.80;;
647;SDS011;75315;49.006;9.060;2024-03-22T03:20:19;37.80;;;4.40;;
647;SDS011;75315;49.006;9.060;2024-03-22T03:22:45;38.20;;;5.05;;
647;SDS011;75315;49.006;9.060;2024-03-22T03:25:11;38.60;;;5.13;;
647;SDS011;75315;49.006;9.060;2024-03-22T03:27:38;40.53;;;6.18;;
647;SDS011;75315;49.006;9.060;2024-03-22T03:30:04;40.17;;;6.22;;
647;SDS011;75315;49.006;9.060;2024-03-22T03:32:31;41.88;;;7.28;;
647;SDS011;75315;49.006;9.060;2024-03-22T03:34:58;41.28;;;6.57;;
647;SDS011;75315;49.006;9.060;2024-03-22T03:37:25;42.53;;;7.72;;
647;SDS011;75315;49.006;9.060;2024-03-22T03:39:51;42.17;;;8.07;;
647;SDS011;75315;49.006;9.060;2024-03-22T03:42:18;42.00;;;7.15;;
647;SDS011;75315;49.006;9.060;2024-03-22T03:44:44;41.42;;;8.82;;
647;SDS011;75315;49.006;9.060;2024-03-22T03:47:10;43.08;;;9.23;;
647;SDS011;75315;49.006;9.060;2024-03-22T03:49:37;42.95;;;9.63;;
647;SDS011;75315;49.006;9.060;2024-03-22T03:52:03;42.85;;;9.57;;
647;SDS011;75315;49.006;9.060;2024-03-22T03:54:30;44.05;;;10.02;;
647;SDS011;75315;49.006;9.060;2024-03-22T03:56:56;43.28;;;9.63;;
647;SDS011;75315;49.006;9.060;2024-03-22T03:59:23;43.45;;;9.18;;
647;SDS011;75315;49.006;9.060;2024-03-22T04:01:49;40.40;;;6.50;;
647;SDS011;75315;49.006;9.060;2024-03-22T04:04:15;40.15;;;6.60;;
647;SDS011;75315;49.006;9.060;2024-03-22T04:06:43;42.95;;;7.75;;
647;SDS011;75315;49.006;9.060;2024-03-22T04:09:10;41.45;;;6.63;;
647;SDS011;75315;49.006;9.060;2024-03-22T04:11:37;39.65;;;6.55;;
647;SDS011;75315;49.006;9.060;2024-03-22T04:14:04;43.63;;;9.30;;
647;SDS011;75315;49.006;9.060;2024-03-22T04:16:31;42.50;;;9.15;;
647;SDS011;75315;49.006;9.060;2024-03-22T04:18:58;42.85;;;9.07;;
647;SDS011;75315;49.006;9.060;2024-03-22T04:21:24;44.03;;;9.68;;
647;SDS011;75315;49.006;9.060;2024-03-22T04:23:51;41.60;;;7.70;;
647;SDS011;75315;49.006;9.060;2024-03-22T04:26:17;45.22;;;8.65;;
647;SDS011;75315;49.006;9.060;2024-03-22T04:28:43;44.88;;;9.13;;
647;SDS011;75315;49.006;9.060;2024-03-22T04:31:10;43.75;;;10.45;;
647;SDS011;75315;49.006;9.060;2024-03-22T04:33:37;46.40;;;9.75;;
647;SDS011;75315;49.006;9.060;2024-03-22T04:36:04;46.15;;;13.18;;
647;SDS011;75315;49.006;9.060;2024-03-22T04:38:30;46.47;;;13.13;;
647;SDS011;75315;49.006;9.060;2024-03-22T04:40:57;49.90;;;12.98;;
647;SDS011;75315;49.006;9.060;2024-03-22T04:43:24;49.70;;;13.30;;
647;SDS011;75315;49.006;9.060;2024-03-22T04:45:51;45.75;;;10.07;;
647;SDS011;75315;49.006;9.060;2024-03-22T04:48:19;44.22;;;9.50;;
647;SDS011;75315;49.006;9.060;2024-03-22T04:50:47;45.35;;;10.95;;
647;SDS011;75315;49.006;9.060;2024-03-22T04:53:17;46.83;;;10.57;;
647;SDS011;75315;49.006;9.060;2024-03-22T04:55:46;44.78;;;10.27;;
647;SDS011;75315;49.006;9.060;2024-03-22T04:58:14;43.92;;;9.32;;
647;SDS011;75315;49.006;9.060;2024-03-22T05:00:41;43.80;;;10.18;;
647;SDS011;75315;49.006;9.060;2024-03-22T05:03:08;43.88;;;9.25;;
647;SDS011;75315;49.006;9.060;2024-03-22T05:05:34;42.42;;;9.80;;
647;SDS011;75315;49.006;9.060;2024-03-22T05:08:01;44.47;;;10.35;;
647;SDS011;75315;49.006;9.060;2024-03-22T05:10:28;43.42;;;9.95;;
647;SDS011;75315;49.006;9.060;2024-03-22T05:12:55;42.97;;;11.40;;
647;SDS011;75315;49.006;9.060;2024-03-22T05:15:22;44.88;;;11.05;;
647;SDS011;75315;49.006;9.060;2024-03-22T05:17:49;45.42;;;11.75;;
647;SDS011;75315;49.006;9.060;2024-03-22T05:20:15;44.05;;;10.88;;
647;SDS011;75315;49.006;9.060;2024-03-22T05:22:42;49.00;;;11.80;;
647;SDS011;75315;49.006;9.060;2024-03-22T05:25:09;46.88;;;12.40;;
647;SDS011;75315;49.006;9.060;2024-03-22T05:27:36;59.08;;;12.70;;
647;SDS011;75315;49.006;9.060;2024-03-22T05:30:02;46.22;;;11.52;;
647;SDS011;75315;49.006;9.060;2024-03-22T05:32:31;45.50;;;11.20;;
647;SDS011;75315;49.006;9.060;2024-03-22T05:34:58;48.60;;;12.90;;
647;SDS011;75315;49.006;9.060;2024-03-22T05:37:24;48.15;;;12.40;;
647;SDS011;75315;49.006;9.060;2024-03-22T05:39:51;44.85;;;11.93;;
647;SDS011;75315;49.006;9.060;2024-03-22T05:42:17;45.92;;;11.98;;
647;SDS011;75315;49.006;9.060;2024-03-22T05:44:44;49.67;;;11.80;;
647;SDS011;75315;49.006;9.060;2024-03-22T05:47:11;46.50;;;12.13;;
647;SDS011;75315;49.006;9.060;2024-03-22T05:49:40;45.08;;;10.63;;
647;SDS011;75315;49.006;9.060;2024-03-22T05:52:06;45.42;;;11.50;;
647;SDS011;75315;49.006;9.060;2024-03-22T05:54:32;43.30;;;10.05;;
647;SDS011;75315;49.006;9.060;2024-03-22T05:56:59;44.72;;;10.07;;
647;SDS011;75315;49.006;9.060;2024-03-22T05:59:26;43.13;;;9.30;;
647;SDS011;75315;49.006;9.060;2024-03-22T06:01:53;42.33;;;8.98;;
647;SDS011;75315;49.006;9.060;2024-03-22T06:04:20;45.40;;;11.35;;
647;SDS011;75315;49.006;9.060;2024-03-22T06:06:46;46.03;;;11.85;;
647;SDS011;75315;49.006;9.060;2024-03-22T06:09:12;48.13;;;10.80;;
647;SDS011;75315;49.006;9.060;2024-03-22T06:11:45;45.92;;;11.32;;
647;SDS011;75315;49.006;9.060;2024-03-22T06:14:11;44.40;;;11.27;;
647;SDS011;75315;49.006;9.060;2024-03-22T06:16:38;46.78;;;11.82;;
647;SDS011;75315;49.006;9.060;2024-03-22T06:19:04;46.45;;;12.20;;
647;SDS011;75315;49.006;9.060;2024-03-22T06:21:30;46.20;;;12.48;;
647;SDS011;75315;49.006;9.060;2024-03-22T06:23:57;47.75;;;12.63;;
647;SDS011;75315;49.006;9.060;2024-03-22T06:26:23;46.17;;;12.05;;
647;SDS011;75315;49.006;9.060;2024-03-22T06:28:50;44.75;;;10.40;;
647;SDS011;75315;49.006;9.060;2024-03-22T06:31:16;44.78;;;11.30;;
647;SDS011;75315;49.006;9.060;2024-03-22T06:33:43;50.55;;;13.23;;
647;SDS011;75315;49.006;9.060;2024-03-22T06:36:09;48.17;;;11.70;;
647;SDS011;75315;49.006;9.060;2024-03-22T06:38:36;47.38;;;12.15;;
647;SDS011;75315;49.006;9.060;2024-03-22T06:41:04;44.80;;;10.30;;
647;SDS011;75315;49.006;9.060;2024-03-22T06:43:30;45.33;;;11.20;;
647;SDS011;75315;49.006;9.060;2024-03-22T06:45:57;44.53;;;10.23;;
647;SDS011;75315;49.006;9.060;2024-03-22T06:48:23;47.28;;;9.38;;
647;SDS011;75315;49.006;9.060;2024-03-22T06:50:50;47.17;;;9.27;;
647;SDS011;75315;49.006;9.060;2024-03-22T06:53:16;45.97;;;10.43;;
647;SDS011;75315;49.006;9.060;2024-03-22T06:55:42;44.58;;;9.70;;
647;SDS011;75315;49.006;9.060;2024-03-22T06:58:10;43.22;;;9.32;;
647;SDS011;75315;49.006;9.060;2024-03-22T07:00:37;45.60;;;10.10;;
647;SDS011;75315;49.006;9.060;2024-03-22T07:03:03;41.97;;;9.30;;
647;SDS011;75315;49.006;9.060;2024-03-22T07:05:29;43.87;;;10.00;;
647;SDS011;75315;49.006;9.060;2024-03-22T07:07:56;42.00;;;8.33;;
647;SDS011;75315;49.006;9.060;2024-03-22T07:10:23;40.67;;;8.60;;
647;SDS011;75315;49.006;9.060;2024-03-22T07:12:56;43.50;;;8.87;;
647;SDS011;75315;49.006;9.060;2024-03-22T07:15:23;40.87;;;8.13;;
647;SDS011;75315;49.006;9.060;2024-03-22T07:17:50;38.13;;;7.03;;
647;SDS011;75315;49.006;9.060;2024-03-22T07:20:17;41.67;;;8.77;;
647;SDS011;75315;49.006;9.060;2024-03-22T07:22:44;40.47;;;7.30;;
647;SDS011;75315;49.006;9.060;2024-03-22T07:25:11;44.00;;;8.77;;
647;SDS011;75315;49.006;9.060;2024-03-22T07:27:37;42.17;;;8.90;;
647;SDS011;75315;49.006;9.060;2024-03-22T07:30:04;42.80;;;8.53;;
647;SDS011;75315;49.006;9.060;2024-03-22T07:32:31;41.37;;;9.53;;
647;SDS011;75315;49.006;9.060;2024-03-22T07:34:58;41.27;;;9.23;;
647;SDS011;75315;49.006;9.060;2024-03-22T07:37:25;41.37;;;8.97;;
647;SDS011;75315;49.006;9.060;2024-03-22T07:39:51;45.83;;;8.67;;
647;SDS011;75315;49.006;9.060;2024-03-22T07:42:17;41.63;;;9.57;;
647;SDS011;75315;49.006;9.060;2024-03-22T07:44:44;41.10;;;9.50;;
647;SDS011;75315;49.006;9.060;2024-03-22T07:47:11;40.87;;;9.53;;
647;SDS011;75315;49.006;9.060;2024-03-22T07:49:37;40.50;;;8.27;;
647;SDS011;75315;49.006;9.060;2024-03-22T07:52:04;41.47;;;9.30;;
647;SDS011;75315;49.006;9.060;2024-03-22T07:54:30;40.77;;;9.13;;
647;SDS011;75315;49.006;9.060;2024-03-22T07:56:57;41.00;;;9.27;;
647;SDS011;75315;49.006;9.060;2024-03-22T07:59:24;40.33;;;8.70;;
647;SDS011;75315;49.006;9.060;2024-03-22T08:01:51;41.47;;;8.87;;
647;SDS011;75315;49.006;9.060;2024-03-22T08:04:17;43.93;;;10.80;;
647;SDS011;75315;49.006;9.060;2024-03-22T08:06:44;43.50;;;10.00;;
647;SDS011;75315;49.006;9.060;2024-03-22T08:09:10;43.70;;;9.70;;
647;SDS011;75315;49.006;9.060;2024-03-22T08:11:37;40.77;;;8.83;;
647;SDS011;75315;49.006;9.060;2024-03-22T08:14:03;40.70;;;7.70;;
647;SDS011;75315;49.006;9.060;2024-03-22T08:16:30;43.50;;;9.57;;
647;SDS011;75315;49.006;9.060;2024-03-22T08:18:56;42.37;;;9.43;;
647;SDS011;75315;49.006;9.060;2024-03-22T08:21:23;47.77;;;9.40;;
647;SDS011;75315;49.006;9.060;2024-03-22T08:23:50;43.17;;;8.60;;
647;SDS011;75315;49.006;9.060;2024-03-22T08:26:17;42.23;;;9.07;;
647;SDS011;75315;49.006;9.060;2024-03-22T08:28:47;42.27;;;9.10;;
647;SDS011;75315;49.006;9.060;2024-03-22T08:31:14;43.10;;;9.27;;
647;SDS011;75315;49.006;9.060;2024-03-22T08:33:41;42.70;;;9.03;;
647;SDS011;75315;49.006;9.060;2024-03-22T08:36:07;44.90;;;9.30;;
647;SDS011;75315;49.006;9.060;2024-03-22T08:38:33;42.97;;;8.97;;
647;SDS011;75315;49.006;9.060;2024-03-22T08:41:00;41.83;;;9.63;;
647;SDS011;75315;49.006;9.060;2024-03-22T08:43:27;42.40;;;8.57;;
647;SDS011;75315;49.006;9.060;2024-03-22T08:45:55;41.63;;;8.53;;
647;SDS011;75315;49.006;9.060;2024-03-22T08:48:21;44.03;;;8.53;;
647;SDS011;75315;49.006;9.060;2024-03-22T08:50:48;42.90;;;8.90;;
647;SDS011;75315;49.006;9.060;2024-03-22T08:53:15;42.40;;;8.47;;
647;SDS011;75315;49.006;9.060;2024-03-22T08:55:47;43.40;;;8.40;;
647;SDS011;75315;49.006;9.060;2024-03-22T08:58:14;45.93;;;8.00;;
647;SDS011;75315;49.006;9.060;2024-03-22T09:00:41;41.17;;;8.20;;
647;SDS011;75315;49.006;9.060;2024-03-22T09:03:08;41.37;;;7.83;;
647;SDS011;75315;49.006;9.060;2024-03-22T09:05:34;40.40;;;7.73;;
647;SDS011;75315;49.006;9.060;2024-03-22T09:08:02;40.40;;;7.73;;
647;SDS011;75315;49.006;9.060;2024-03-22T09:10:29;40.73;;;9.47;;
647;SDS011;75315;49.006;9.060;2024-03-22T09:12:56;43.40;;;8.43;;
647;SDS011;75315;49.006;9.060;2024-03-22T09:15:22;44.83;;;9.50;;
647;SDS011;75315;49.006;9.060;2024-03-22T09:17:51;42.73;;;9.37;;
647;SDS011;75315;49.006;9.060;2024-03-22T09:20:18;45.73;;;10.10;;
647;SDS011;75315;49.006;9.060;2024-03-22T09:22:45;40.90;;;8.90;;
647;SDS011;75315;49.006;9.060;2024-03-22T09:25:12;42.10;;;8.47;;
647;SDS011;75315;49.006;9.060;2024-03-22T09:27:38;43.70;;;9.23;;
647;SDS011;75315;49.006;9.060;2024-03-22T09:30:05;43.30;;;9.20;;
647;SDS011;75315;49.006;9.060;2024-03-22T09:32:32;44.23;;;10.30;;
647;SDS011;75315;49.006;9.060;2024-03-22T09:34:58;41.87;;;8.90;;
647;SDS011;75315;49.006;9.060;2024-03-22T09:37:25;43.50;;;9.60;;
647;SDS011;75315;49.006;9.060;2024-03-22T09:39:52;41.20;;;9.53;;
647;SDS011;75315;49.006;9.060;2024-03-22T09:42:18;42.00;;;9.07;;
647;SDS011;75315;49.006;9.060;2024-03-22T09:44:48;43.83;;;9.50;;
647;SDS011;75315;49.006;9.060;2024-03-22T09:47:17;42.70;;;9.20;;
647;SDS011;75315;49.006;9.060;2024-03-22T09:49:44;41.30;;;8.93;;
647;SDS011;75315;49.006;9.060;2024-03-22T09:52:12;43.93;;;9.37;;
647;SDS011;75315;49.006;9.060;2024-03-22T09:54:45;42.00;;;8.93;;
647;SDS011;75315;49.006;9.060;2024-03-22T09:57:15;42.27;;;8.20;;
647;SDS011;75315;49.006;9.060;2024-03-22T09:59:42;40.97;;;8.63;;
647;SDS011;75315;49.006;9.060;2024-03-22T10:02:10;41.70;;;7.90;;
647;SDS011;75315;49.006;9.060;2024-03-22T10:04:41;43.87;;;8.40;;
647;SDS011;75315;49.006;9.060;2024-03-22T10:07:08;42.40;;;8.60;;
647;SDS011;75315;49.006;9.060;2024-03-22T10:09:36;42.07;;;7.83;;
647;SDS011;75315;49.006;9.060;2024-03-22T10:12:03;41.83;;;9.23;;
647;SDS011;75315;49.006;9.060;2024-03-22T10:14:30;42.33;;;9.03;;
647;SDS011;75315;49.006;9.060;2024-03-22T10:16:57;40.00;;;7.40;;
647;SDS011;75315;49.006;9.060;2024-03-22T10:19:24;44.77;;;9.30;;
647;SDS011;75315;49.006;9.060;2024-03-22T10:22:00;41.83;;;7.50;;
647;SDS011;75315;49.006;9.060;2024-03-22T10:24:27;40.57;;;8.17;;
647;SDS011;75315;49.006;9.060;2024-03-22T10:26:54;42.80;;;7.50;;
647;SDS011;75315;49.006;9.060;2024-03-22T10:29:22;41.40;;;8.93;;
647;SDS011;75315;49.006;9.060;2024-03-22T10:31:52;42.13;;;9.40;;
647;SDS011;75315;49.006;9.060;2024-03-22T10:34:20;42.87;;;8.50;;
647;SDS011;75315;49.006;9.060;2024-03-22T10:36:50;45.83;;;8.13;;
647;SDS011;75315;49.006;9.060;2024-03-22T10:39:17;39.10;;;6.47;;
647;SDS011;75315;49.006;9.060;2024-03-22T10:41:48;42.67;;;8.63;;
647;SDS011;75315;49.006;9.060;2024-03-22T10:44:15;40.07;;;8.07;;
647;SDS011;75315;49.006;9.060;2024-03-22T10:46:45;38.20;;;6.77;;
647;SDS011;75315;49.006;9.060;2024-03-22T10:49:17;40.87;;;7.30;;
647;SDS011;75315;49.006;9.060;2024-03-22T10:51:46;42.83;;;7.97;;
647;SDS011;75315;49.006;9.060;2024-03-22T10:54:19;41.67;;;7.90;;
647;SDS011;75315;49.006;9.060;2024-03-22T10:56:48;41.37;;;7.37;;
647;SDS011;75315;49.006;9.060;2024-03-22T10:59:19;40.30;;;6.73;;
647;SDS011;75315;49.006;9.060;2024-03-22T11:01:46;39.47;;;6.53;;
647;SDS011;75315;49.006;9.060;2024-03-22T11:04:14;40.50;;;6.43;;
647;SDS011;75315;49.006;9.060;2024-03-22T11:06:49;38.70;;;6.47;;
647;SDS011;75315;49.006;9.060;2024-03-22T11:09:23;38.63;;;5.33;;
647;SDS011;75315;49.006;9.060;2024-03-22T11:11:51;38.83;;;4.90;;
647;SDS011;75315;49.006;9.060;2024-03-22T11:14:19;39.93;;;4.83;;
647;SDS011;75315;49.006;9.060;2024-03-22T11:16:47;36.10;;;3.60;;
647;SDS011;75315;49.006;9.060;2024-03-22T11:19:13;38.37;;;3.60;;
647;SDS011;75315;49.006;9.060;2024-03-22T11:21:40;38.00;;;3.60;;
647;SDS011;75315;49.006;9.060;2024-03-22T11:24:07;38.43;;;4.50;;
647;SDS011;75315;49.006;9.060;2024-03-22T11:26:35;38.33;;;3.63;;
647;SDS011;75315;49.006;9.060;2024-03-22T11:29:01;41.57;;;4.60;;
647;SDS011;75315;49.006;9.060;2024-03-22T11:31:28;38.10;;;4.87;;
647;SDS011;75315;49.006;9.060;2024-03-22T11:33:54;39.73;;;4.60;;
647;SDS011;75315;49.006;9.060;2024-03-22T11:36:22;39.33;;;4.87;;
647;SDS011;75315;49.006;9.060;2024-03-22T11:38:49;38.47;;;4.60;;
647;SDS011;75315;49.006;9.060;2024-03-22T11:41:17;37.97;;;5.30;;
647;SDS011;75315;49.006;9.060;2024-03-22T11:43:45;41.87;;;5.93;;
647;SDS011;75315;49.006;9.060;2024-03-22T11:46:14;39.63;;;5.10;;
647;SDS011;75315;49.006;9.060;2024-03-22T11:48:41;40.50;;;6.10;;
647;SDS011;75315;49.006;9.060;2024-03-22T11:51:08;39.23;;;5.50;;
647;SDS011;75315;49.006;9.060;2024-03-22T11:53:36;37.90;;;4.03;;
647;SDS011;75315;49.006;9.060;2024-03-22T11:56:05;38.67;;;5.00;;
647;SDS011;75315;49.006;9.060;2024-03-22T11:58:34;39.33;;;4.07;;
647;SDS011;75315;49.006;9.060;2024-03-22T12:01:00;39.30;;;5.40;;
647;SDS011;75315;49.006;9.060;2024-03-22T12:03:28;38.10;;;4.23;;
647;SDS011;75315;49.006;9.060;2024-03-22T12:05:54;39.50;;;5.23;;
647;SDS011;75315;49.006;9.060;2024-03-22T12:08:20;38.27;;;3.53;;
647;SDS011;75315;49.006;9.060;2024-03-22T12:10:47;39.50;;;3.73;;
647;SDS011;75315;49.006;9.060;2024-03-22T12:13:14;38.23;;;3.80;;
647;SDS011;75315;49.006;9.060;2024-03-22T12:15:40;37.20;;;4.07;;
647;SDS011;75315;49.006;9.060;2024-03-22T12:18:07;35.90;;;2.47;;
647;SDS011;75315;49.006;9.060;2024-03-22T12:20:33;39.00;;;3.70;;
647;SDS011;75315;49.006;9.060;2024-03-22T12:22:59;36.90;;;3.80;;
647;SDS011;75315;49.006;9.060;2024-03-22T12:25:26;36.87;;;4.10;;
647;SDS011;75315;49.006;9.060;2024-03-22T12:27:52;36.50;;;3.50;;
647;SDS011;75315;49.006;9.060;2024-03-22T12:30:19;38.07;;;3.80;;
647;SDS011;75315;49.006;9.060;2024-03-22T12:32:45;36.20;;;3.60;;
647;SDS011;75315;49.006;9.060;2024-03-22T12:35:12;39.93;;;3.53;;
647;SDS011;75315;49.006;9.060;2024-03-22T12:37:38;37.33;;;4.37;;
647;SDS011;75315;49.006;9.060;2024-03-22T12:40:05;36.67;;;4.17;;
647;SDS011;75315;49.006;9.060;2024-03-22T12:42:34;39.27;;;4.10;;
647;SDS011;75315;49.006;9.060;2024-03-22T12:45:00;37.57;;;4.00;;
647;SDS011;75315;49.006;9.060;2024-03-22T12:47:27;37.80;;;3.87;;
647;SDS011;75315;49.006;9.060;2024-03-22T12:49:54;37.80;;;4.20;;
647;SDS011;75315;49.006;9.060;2024-03-22T12:52:23;37.87;;;4.13;;
647;SDS011;75315;49.006;9.060;2024-03-22T12:54:49;37.77;;;4.47;;
647;SDS011;75315;49.006;9.060;2024-03-22T12:57:16;36.93;;;3.53;;
647;SDS011;75315;49.006;9.060;2024-03-22T12:59:44;40.63;;;3.83;;
647;SDS011;75315;49.006;9.060;2024-03-22T13:02:12;36.87;;;3.13;;
647;SDS011;75315;49.006;9.060;2024-03-22T13:04:38;37.80;;;3.67;;
647;SDS011;75315;49.006;9.060;2024-03-22T13:07:05;37.40;;;3.93;;
647;SDS011;75315;49.006;9.060;2024-03-22T13:09:32;36.73;;;3.10;;
647;SDS011;75315;49.006;9.060;2024-03-22T13:11:58;38.40;;;4.17;;
647;SDS011;75315;49.006;9.060;2024-03-22T13:14:25;37.60;;;3.30;;
647;SDS011;75315;49.006;9.060;2024-03-22T13:16:51;37.93;;;4.37;;
647;SDS011;75315;49.006;9.060;2024-03-22T13:19:17;39.27;;;3.83;;
647;SDS011;75315;49.006;9.060;2024-03-22T13:21:44;37.77;;;3.47;;
647;SDS011;75315;49.006;9.060;2024-03-22T13:24:14;37.60;;;3.30;;
647;SDS011;75315;49.006;9.060;2024-03-22T13:26:40;36.70;;;2.67;;
647;SDS011;75315;49.006;9.060;2024-03-22T13:29:07;37.50;;;2.67;;
647;SDS011;75315;49.006;9.060;2024-03-22T13:31:33;36.20;;;2.73;;
647;SDS011;75315;49.006;9.060;2024-03-22T13:34:00;37.70;;;2.63;;
647;SDS011;75315;49.006;9.060;2024-03-22T13:36:26;38.07;;;2.30;;
647;SDS011;75315;49.006;9.060;2024-03-22T13:38:54;38.10;;;2.70;;
647;SDS011;75315;49.006;9.060;2024-03-22T13:41:21;37.30;;;1.93;;
647;SDS011;75315;49.006;9.060;2024-03-22T13:43:47;38.47;;;2.80;;
647;SDS011;75315;49.006;9.060;2024-03-22T13:46:14;36.67;;;2.77;;
647;SDS011;75315;49.006;9.060;2024-03-22T13:48:40;38.10;;;2.20;;
647;SDS011;75315;49.006;9.060;2024-03-22T13:51:07;35.80;;;2.53;;
647;SDS011;75315;49.006;9.060;2024-03-22T13:53:33;35.97;;;2.00;;
647;SDS011;75315;49.006;9.060;2024-03-22T13:56:00;37.57;;;2.40;;
647;SDS011;75315;49.006;9.060;2024-03-22T13:58:26;37.47;;;2.33;;
647;SDS011;75315;49.006;9.060;2024-03-22T14:00:53;36.67;;;2.83;;
647;SDS011;75315;49.006;9.060;2024-03-22T14:03:19;37.30;;;2.27;;
647;SDS011;75315;49.006;9.060;2024-03-22T14:05:46;35.87;;;1.67;;
647;SDS011;75315;49.006;9.060;2024-03-22T14:08:14;37.20;;;2.40;;
647;SDS011;75315;49.006;9.060;2024-03-22T14:10:40;37.50;;;2.50;;
647;SDS011;75315;49.006;9.060;2024-03-22T14:13:07;41.03;;;2.20;;
647;SDS011;75315;49.006;9.060;2024-03-22T14:15:34;35.57;;;2.20;;
647;SDS011;75315;49.006;9.060;2024-03-22T14:18:01;36.10;;;2.20;;
647;SDS011;75315;49.006;9.060;2024-03-22T14:20:29;38.73;;;3.20;;
647;SDS011;75315;49.006;9.060;2024-03-22T14:22:55;36.10;;;2.17;;
647;SDS011;75315;49.006;9.060;2024-03-22T14:25:21;37.37;;;2.90;;
647;SDS011;75315;49.006;9.060;2024-03-22T14:27:48;35.43;;;2.20;;
647;SDS011;75315;49.006;9.060;2024-03-22T14:30:14;36.80;;;2.77;;
647;SDS011;75315;49.006;9.060;2024-03-22T14:32:41;35.87;;;2.23;;
647;SDS011;75315;49.006;9.060;2024-03-22T14:35:08;36.67;;;2.73;;
647;SDS011;75315;49.006;9.060;2024-03-22T14:37:34;38.57;;;3.20;;
647;SDS011;75315;49.006;9.060;2024-03-22T14:40:01;36.57;;;2.67;;
647;SDS011;75315;49.006;9.060;2024-03-22T14:42:31;37.30;;;2.50;;
647;SDS011;75315;49.006;9.060;2024-03-22T14:44:58;39.37;;;3.30;;
647;SDS011;75315;49.006;9.060;2024-03-22T14:47:25;36.37;;;3.03;;
647;SDS011;75315;49.006;9.060;2024-03-22T14:49:51;42.33;;;3.60;;
647;SDS011;75315;49.006;9.060;2024-03-22T14:52:18;37.50;;;3.10;;
647;SDS011;75315;49.006;9.060;2024-03-22T14:54:44;36.37;;;4.60;;
647;SDS011;75315;49.006;9.060;2024-03-22T14:57:11;37.30;;;3.20;;
647;SDS011;75315;49.006;9.060;2024-03-22T14:59:37;37.40;;;3.40;;